Riverbank, California
Current Conditions -  °F | °C
As of 1:53 AM on Sunday 26 Oct 2014 (Local Time) from KMOD Reporting Station
Clear Clear  
Wind Chill: 58°   Ceiling: Unl
Heat Index: 58°   Visibility: 10mi
Dew Point: 53°   Wind: 10mph
Humidity: 84%   Direction: 330°NNW
Pressure: 30.13"   Gusts: NA
Location:  37.74°N, 120.93°W
Report Text: KMOD 260853Z AUTO 33009KT 10SM CLR 14/12 A3013 RMK AO2 SLP203 T01440117 53004
Loading
Personal Weather Stations






























Interactive Weather Map
Tropical Storm Tracking
New forecast layout! Learn more

10-Day Weather Forecast

Advertisements
Track Severe Weather on mobile